sensor_id;sensor_type;location;lat;lon;timestamp;P1;durP1;ratioP1;P2;durP2;ratioP2
44440;SDS011;30146;52.268;20.944;2023-06-10T00:01:01;13.50;;;7.80;;
44440;SDS011;30146;52.268;20.944;2023-06-10T00:03:33;10.30;;;7.20;;
44440;SDS011;30146;52.268;20.944;2023-06-10T00:06:05;13.90;;;7.30;;
44440;SDS011;30146;52.268;20.944;2023-06-10T00:08:37;19.90;;;6.50;;
44440;SDS011;30146;52.268;20.944;2023-06-10T00:11:08;16.40;;;6.60;;
44440;SDS011;30146;52.268;20.944;2023-06-10T00:13:39;14.60;;;6.20;;
44440;SDS011;30146;52.268;20.944;2023-06-10T00:16:10;10.00;;;6.30;;
44440;SDS011;30146;52.268;20.944;2023-06-10T00:18:42;13.10;;;6.60;;
44440;SDS011;30146;52.268;20.944;2023-06-10T00:21:13;8.30;;;6.10;;
44440;SDS011;30146;52.268;20.944;2023-06-10T00:23:45;13.60;;;5.50;;
44440;SDS011;30146;52.268;20.944;2023-06-10T00:26:16;9.40;;;5.60;;
44440;SDS011;30146;52.268;20.944;2023-06-10T00:28:48;11.90;;;6.30;;
44440;SDS011;30146;52.268;20.944;2023-06-10T00:31:21;11.70;;;6.00;;
44440;SDS011;30146;52.268;20.944;2023-06-10T00:33:54;11.10;;;5.80;;
44440;SDS011;30146;52.268;20.944;2023-06-10T00:36:27;11.00;;;5.90;;
44440;SDS011;30146;52.268;20.944;2023-06-10T00:38:58;9.90;;;6.00;;
44440;SDS011;30146;52.268;20.944;2023-06-10T00:41:29;10.50;;;5.40;;
44440;SDS011;30146;52.268;20.944;2023-06-10T00:44:02;7.40;;;5.70;;
44440;SDS011;30146;52.268;20.944;2023-06-10T00:46:33;11.10;;;5.60;;
44440;SDS011;30146;52.268;20.944;2023-06-10T00:49:05;9.80;;;5.80;;
44440;SDS011;30146;52.268;20.944;2023-06-10T00:51:37;11.20;;;6.00;;
44440;SDS011;30146;52.268;20.944;2023-06-10T00:54:09;7.80;;;5.00;;
44440;SDS011;30146;52.268;20.944;2023-06-10T00:56:41;16.70;;;5.80;;
44440;SDS011;30146;52.268;20.944;2023-06-10T00:59:13;12.00;;;5.30;;
44440;SDS011;30146;52.268;20.944;2023-06-10T01:01:45;7.70;;;5.30;;
44440;SDS011;30146;52.268;20.944;2023-06-10T01:04:16;11.40;;;5.40;;
44440;SDS011;30146;52.268;20.944;2023-06-10T01:06:52;6.70;;;4.80;;
44440;SDS011;30146;52.268;20.944;2023-06-10T01:09:31;10.20;;;5.30;;
44440;SDS011;30146;52.268;20.944;2023-06-10T01:12:10;9.00;;;5.60;;
44440;SDS011;30146;52.268;20.944;2023-06-10T01:14:46;12.40;;;6.50;;
44440;SDS011;30146;52.268;20.944;2023-06-10T01:17:19;9.10;;;5.30;;
44440;SDS011;30146;52.268;20.944;2023-06-10T01:19:54;9.30;;;5.30;;
44440;SDS011;30146;52.268;20.944;2023-06-10T01:22:27;9.80;;;5.20;;
44440;SDS011;30146;52.268;20.944;2023-06-10T01:25:00;10.40;;;5.30;;
44440;SDS011;30146;52.268;20.944;2023-06-10T01:27:34;13.20;;;5.00;;
44440;SDS011;30146;52.268;20.944;2023-06-10T01:30:12;11.20;;;5.00;;
44440;SDS011;30146;52.268;20.944;2023-06-10T01:32:50;9.90;;;4.50;;
44440;SDS011;30146;52.268;20.944;2023-06-10T01:35:22;7.10;;;5.00;;
44440;SDS011;30146;52.268;20.944;2023-06-10T01:37:57;9.30;;;5.00;;
44440;SDS011;30146;52.268;20.944;2023-06-10T01:40:31;10.80;;;5.10;;
44440;SDS011;30146;52.268;20.944;2023-06-10T01:43:03;9.30;;;5.30;;
44440;SDS011;30146;52.268;20.944;2023-06-10T01:45:34;9.50;;;5.50;;
44440;SDS011;30146;52.268;20.944;2023-06-10T01:48:06;6.70;;;4.80;;
44440;SDS011;30146;52.268;20.944;2023-06-10T01:50:37;8.90;;;4.80;;
44440;SDS011;30146;52.268;20.944;2023-06-10T01:53:08;8.70;;;5.30;;
44440;SDS011;30146;52.268;20.944;2023-06-10T01:55:39;13.80;;;5.50;;
44440;SDS011;30146;52.268;20.944;2023-06-10T01:58:11;14.20;;;5.30;;
44440;SDS011;30146;52.268;20.944;2023-06-10T02:00:42;8.00;;;5.50;;
44440;SDS011;30146;52.268;20.944;2023-06-10T02:03:13;13.50;;;5.40;;
44440;SDS011;30146;52.268;20.944;2023-06-10T02:05:44;12.80;;;4.90;;
44440;SDS011;30146;52.268;20.944;2023-06-10T02:08:16;9.00;;;4.90;;
44440;SDS011;30146;52.268;20.944;2023-06-10T02:10:47;14.00;;;5.20;;
44440;SDS011;30146;52.268;20.944;2023-06-10T02:13:18;10.70;;;5.60;;
44440;SDS011;30146;52.268;20.944;2023-06-10T02:15:52;10.30;;;5.20;;
44440;SDS011;30146;52.268;20.944;2023-06-10T02:18:23;11.30;;;5.00;;
44440;SDS011;30146;52.268;20.944;2023-06-10T02:20:55;9.30;;;4.60;;
44440;SDS011;30146;52.268;20.944;2023-06-10T02:23:26;11.60;;;4.90;;
44440;SDS011;30146;52.268;20.944;2023-06-10T02:25:58;13.60;;;5.20;;
44440;SDS011;30146;52.268;20.944;2023-06-10T02:28:29;14.40;;;5.80;;
44440;SDS011;30146;52.268;20.944;2023-06-10T02:31:00;17.80;;;6.10;;
44440;SDS011;30146;52.268;20.944;2023-06-10T02:33:31;17.20;;;5.30;;
44440;SDS011;30146;52.268;20.944;2023-06-10T02:36:03;14.70;;;4.80;;
44440;SDS011;30146;52.268;20.944;2023-06-10T02:38:35;14.70;;;5.90;;
44440;SDS011;30146;52.268;20.944;2023-06-10T02:41:06;8.50;;;5.50;;
44440;SDS011;30146;52.268;20.944;2023-06-10T02:43:38;10.80;;;4.80;;
44440;SDS011;30146;52.268;20.944;2023-06-10T02:46:09;6.40;;;4.20;;
44440;SDS011;30146;52.268;20.944;2023-06-10T02:48:41;13.10;;;5.10;;
44440;SDS011;30146;52.268;20.944;2023-06-10T02:51:15;9.50;;;5.30;;
44440;SDS011;30146;52.268;20.944;2023-06-10T02:53:48;8.80;;;5.00;;
44440;SDS011;30146;52.268;20.944;2023-06-10T02:56:19;13.10;;;5.20;;
44440;SDS011;30146;52.268;20.944;2023-06-10T02:58:51;14.70;;;5.40;;
44440;SDS011;30146;52.268;20.944;2023-06-10T03:01:23;13.80;;;5.30;;
44440;SDS011;30146;52.268;20.944;2023-06-10T03:04:01;14.80;;;5.20;;
44440;SDS011;30146;52.268;20.944;2023-06-10T03:06:33;8.10;;;5.10;;
44440;SDS011;30146;52.268;20.944;2023-06-10T03:09:14;8.60;;;5.10;;
44440;SDS011;30146;52.268;20.944;2023-06-10T03:11:47;13.70;;;5.30;;
44440;SDS011;30146;52.268;20.944;2023-06-10T03:14:18;10.90;;;4.70;;
44440;SDS011;30146;52.268;20.944;2023-06-10T03:16:50;11.50;;;4.80;;
44440;SDS011;30146;52.268;20.944;2023-06-10T03:19:22;10.80;;;5.60;;
44440;SDS011;30146;52.268;20.944;2023-06-10T03:21:57;8.00;;;4.50;;
44440;SDS011;30146;52.268;20.944;2023-06-10T03:24:39;11.60;;;4.90;;
44440;SDS011;30146;52.268;20.944;2023-06-10T03:27:12;6.60;;;4.90;;
44440;SDS011;30146;52.268;20.944;2023-06-10T03:29:44;14.90;;;5.50;;
44440;SDS011;30146;52.268;20.944;2023-06-10T03:32:16;9.70;;;4.80;;
44440;SDS011;30146;52.268;20.944;2023-06-10T03:34:47;11.60;;;5.80;;
44440;SDS011;30146;52.268;20.944;2023-06-10T03:37:19;10.20;;;5.80;;
44440;SDS011;30146;52.268;20.944;2023-06-10T03:39:51;10.80;;;5.40;;
44440;SDS011;30146;52.268;20.944;2023-06-10T03:42:22;11.00;;;4.50;;
44440;SDS011;30146;52.268;20.944;2023-06-10T03:44:54;11.70;;;5.10;;
44440;SDS011;30146;52.268;20.944;2023-06-10T03:47:25;13.90;;;5.00;;
44440;SDS011;30146;52.268;20.944;2023-06-10T03:49:56;10.40;;;4.70;;
44440;SDS011;30146;52.268;20.944;2023-06-10T03:52:28;11.10;;;4.20;;
44440;SDS011;30146;52.268;20.944;2023-06-10T03:55:00;19.70;;;5.40;;
44440;SDS011;30146;52.268;20.944;2023-06-10T03:57:33;8.00;;;5.10;;
44440;SDS011;30146;52.268;20.944;2023-06-10T04:00:05;13.50;;;4.70;;
44440;SDS011;30146;52.268;20.944;2023-06-10T04:02:42;12.00;;;5.20;;
44440;SDS011;30146;52.268;20.944;2023-06-10T04:05:25;8.30;;;4.50;;
44440;SDS011;30146;52.268;20.944;2023-06-10T04:07:58;8.70;;;4.50;;
44440;SDS011;30146;52.268;20.944;2023-06-10T04:10:29;11.40;;;5.10;;
44440;SDS011;30146;52.268;20.944;2023-06-10T04:13:01;9.70;;;4.70;;
44440;SDS011;30146;52.268;20.944;2023-06-10T04:15:36;11.40;;;5.30;;
44440;SDS011;30146;52.268;20.944;2023-06-10T04:18:11;6.90;;;4.20;;
44440;SDS011;30146;52.268;20.944;2023-06-10T04:20:44;10.50;;;5.20;;
44440;SDS011;30146;52.268;20.944;2023-06-10T04:23:15;10.40;;;4.70;;
44440;SDS011;30146;52.268;20.944;2023-06-10T04:25:47;8.60;;;4.10;;
44440;SDS011;30146;52.268;20.944;2023-06-10T04:28:19;9.00;;;4.70;;
44440;SDS011;30146;52.268;20.944;2023-06-10T04:30:50;14.50;;;5.30;;
44440;SDS011;30146;52.268;20.944;2023-06-10T04:33:21;13.90;;;3.70;;
44440;SDS011;30146;52.268;20.944;2023-06-10T04:35:52;10.40;;;4.70;;
44440;SDS011;30146;52.268;20.944;2023-06-10T04:38:24;11.60;;;4.60;;
44440;SDS011;30146;52.268;20.944;2023-06-10T04:40:56;12.60;;;4.80;;
44440;SDS011;30146;52.268;20.944;2023-06-10T04:43:28;9.00;;;4.50;;
44440;SDS011;30146;52.268;20.944;2023-06-10T04:46:00;9.50;;;4.80;;
44440;SDS011;30146;52.268;20.944;2023-06-10T04:48:36;18.50;;;5.00;;
44440;SDS011;30146;52.268;20.944;2023-06-10T04:51:07;7.80;;;4.40;;
44440;SDS011;30146;52.268;20.944;2023-06-10T04:53:38;18.00;;;5.30;;
44440;SDS011;30146;52.268;20.944;2023-06-10T04:56:09;15.60;;;5.10;;
44440;SDS011;30146;52.268;20.944;2023-06-10T04:58:40;11.10;;;5.10;;
44440;SDS011;30146;52.268;20.944;2023-06-10T05:01:11;10.60;;;4.40;;
44440;SDS011;30146;52.268;20.944;2023-06-10T05:03:42;12.60;;;5.10;;
44440;SDS011;30146;52.268;20.944;2023-06-10T05:06:13;13.10;;;5.20;;
44440;SDS011;30146;52.268;20.944;2023-06-10T05:08:45;9.00;;;5.30;;
44440;SDS011;30146;52.268;20.944;2023-06-10T05:11:16;15.00;;;4.80;;
44440;SDS011;30146;52.268;20.944;2023-06-10T05:13:47;7.60;;;4.60;;
44440;SDS011;30146;52.268;20.944;2023-06-10T05:16:18;8.30;;;4.90;;
44440;SDS011;30146;52.268;20.944;2023-06-10T05:18:49;8.00;;;4.20;;
44440;SDS011;30146;52.268;20.944;2023-06-10T05:21:20;10.40;;;4.70;;
44440;SDS011;30146;52.268;20.944;2023-06-10T05:23:51;14.30;;;4.50;;
44440;SDS011;30146;52.268;20.944;2023-06-10T05:26:23;9.70;;;4.60;;
44440;SDS011;30146;52.268;20.944;2023-06-10T05:28:54;18.00;;;5.30;;
44440;SDS011;30146;52.268;20.944;2023-06-10T05:31:26;13.60;;;4.70;;
44440;SDS011;30146;52.268;20.944;2023-06-10T05:33:57;10.70;;;5.00;;
44440;SDS011;30146;52.268;20.944;2023-06-10T05:36:28;24.60;;;5.20;;
44440;SDS011;30146;52.268;20.944;2023-06-10T05:39:00;8.90;;;4.80;;
44440;SDS011;30146;52.268;20.944;2023-06-10T05:41:32;12.10;;;5.50;;
44440;SDS011;30146;52.268;20.944;2023-06-10T05:44:03;11.70;;;5.30;;
44440;SDS011;30146;52.268;20.944;2023-06-10T05:46:34;10.40;;;5.00;;
44440;SDS011;30146;52.268;20.944;2023-06-10T05:49:05;20.10;;;4.40;;
44440;SDS011;30146;52.268;20.944;2023-06-10T05:51:36;8.00;;;4.30;;
44440;SDS011;30146;52.268;20.944;2023-06-10T05:54:07;14.00;;;4.90;;
44440;SDS011;30146;52.268;20.944;2023-06-10T05:56:39;11.20;;;5.10;;
44440;SDS011;30146;52.268;20.944;2023-06-10T05:59:10;9.90;;;4.50;;
44440;SDS011;30146;52.268;20.944;2023-06-10T06:01:41;7.30;;;3.90;;
44440;SDS011;30146;52.268;20.944;2023-06-10T06:04:12;13.00;;;4.40;;
44440;SDS011;30146;52.268;20.944;2023-06-10T06:06:44;17.70;;;4.90;;
44440;SDS011;30146;52.268;20.944;2023-06-10T06:09:15;9.30;;;4.20;;
44440;SDS011;30146;52.268;20.944;2023-06-10T06:11:46;10.50;;;4.20;;
44440;SDS011;30146;52.268;20.944;2023-06-10T06:14:17;11.00;;;4.00;;
44440;SDS011;30146;52.268;20.944;2023-06-10T06:16:48;12.90;;;4.00;;
44440;SDS011;30146;52.268;20.944;2023-06-10T06:19:19;6.40;;;4.50;;
44440;SDS011;30146;52.268;20.944;2023-06-10T06:21:50;9.80;;;6.10;;
44440;SDS011;30146;52.268;20.944;2023-06-10T06:24:21;16.00;;;7.70;;
44440;SDS011;30146;52.268;20.944;2023-06-10T06:26:52;13.50;;;4.90;;
44440;SDS011;30146;52.268;20.944;2023-06-10T06:29:23;9.20;;;4.20;;
44440;SDS011;30146;52.268;20.944;2023-06-10T06:31:54;7.20;;;4.40;;
44440;SDS011;30146;52.268;20.944;2023-06-10T06:34:26;9.50;;;4.30;;
44440;SDS011;30146;52.268;20.944;2023-06-10T06:36:57;9.80;;;4.80;;
44440;SDS011;30146;52.268;20.944;2023-06-10T06:39:30;10.20;;;4.40;;
44440;SDS011;30146;52.268;20.944;2023-06-10T06:42:01;14.30;;;4.90;;
44440;SDS011;30146;52.268;20.944;2023-06-10T06:44:59;8.10;;;4.50;;
44440;SDS011;30146;52.268;20.944;2023-06-10T06:47:30;13.00;;;5.40;;
44440;SDS011;30146;52.268;20.944;2023-06-10T06:50:01;8.00;;;4.50;;
44440;SDS011;30146;52.268;20.944;2023-06-10T06:52:35;11.40;;;4.60;;
44440;SDS011;30146;52.268;20.944;2023-06-10T06:55:06;9.90;;;4.50;;
44440;SDS011;30146;52.268;20.944;2023-06-10T06:57:38;9.20;;;4.50;;
44440;SDS011;30146;52.268;20.944;2023-06-10T07:00:11;11.20;;;4.90;;
44440;SDS011;30146;52.268;20.944;2023-06-10T07:02:44;14.20;;;5.00;;
44440;SDS011;30146;52.268;20.944;2023-06-10T07:05:16;20.60;;;4.50;;
44440;SDS011;30146;52.268;20.944;2023-06-10T07:07:47;12.40;;;4.90;;
44440;SDS011;30146;52.268;20.944;2023-06-10T07:10:23;9.50;;;4.10;;
44440;SDS011;30146;52.268;20.944;2023-06-10T07:12:54;14.10;;;4.80;;
44440;SDS011;30146;52.268;20.944;2023-06-10T07:15:25;9.50;;;4.50;;
44440;SDS011;30146;52.268;20.944;2023-06-10T07:17:56;9.80;;;4.80;;
44440;SDS011;30146;52.268;20.944;2023-06-10T07:20:27;14.80;;;4.60;;
44440;SDS011;30146;52.268;20.944;2023-06-10T07:22:59;18.00;;;4.60;;
44440;SDS011;30146;52.268;20.944;2023-06-10T07:25:30;11.90;;;5.00;;
44440;SDS011;30146;52.268;20.944;2023-06-10T07:28:01;5.50;;;4.30;;
44440;SDS011;30146;52.268;20.944;2023-06-10T07:30:33;13.50;;;4.50;;
44440;SDS011;30146;52.268;20.944;2023-06-10T07:33:04;8.80;;;4.60;;
44440;SDS011;30146;52.268;20.944;2023-06-10T07:35:38;11.70;;;4.80;;
44440;SDS011;30146;52.268;20.944;2023-06-10T07:38:11;8.60;;;4.70;;
44440;SDS011;30146;52.268;20.944;2023-06-10T07:40:48;10.50;;;4.70;;
44440;SDS011;30146;52.268;20.944;2023-06-10T07:43:19;11.80;;;4.50;;
44440;SDS011;30146;52.268;20.944;2023-06-10T07:45:50;8.00;;;4.40;;
44440;SDS011;30146;52.268;20.944;2023-06-10T07:48:21;9.40;;;5.80;;
44440;SDS011;30146;52.268;20.944;2023-06-10T07:50:52;7.40;;;4.50;;
44440;SDS011;30146;52.268;20.944;2023-06-10T07:53:23;16.70;;;4.70;;
44440;SDS011;30146;52.268;20.944;2023-06-10T07:55:55;8.40;;;5.30;;
44440;SDS011;30146;52.268;20.944;2023-06-10T07:58:26;9.70;;;4.80;;
44440;SDS011;30146;52.268;20.944;2023-06-10T08:00:58;9.30;;;4.80;;
44440;SDS011;30146;52.268;20.944;2023-06-10T08:03:29;9.90;;;4.60;;
44440;SDS011;30146;52.268;20.944;2023-06-10T08:06:01;16.40;;;4.90;;
44440;SDS011;30146;52.268;20.944;2023-06-10T08:08:34;9.40;;;4.60;;
44440;SDS011;30146;52.268;20.944;2023-06-10T08:11:10;11.00;;;4.90;;
44440;SDS011;30146;52.268;20.944;2023-06-10T08:13:42;15.30;;;5.10;;
44440;SDS011;30146;52.268;20.944;2023-06-10T08:16:13;14.80;;;5.20;;
44440;SDS011;30146;52.268;20.944;2023-06-10T08:18:46;9.60;;;4.60;;
44440;SDS011;30146;52.268;20.944;2023-06-10T08:21:22;10.50;;;5.20;;
44440;SDS011;30146;52.268;20.944;2023-06-10T08:23:53;12.50;;;5.40;;
44440;SDS011;30146;52.268;20.944;2023-06-10T08:26:25;7.90;;;5.60;;
44440;SDS011;30146;52.268;20.944;2023-06-10T08:28:56;9.40;;;4.80;;
44440;SDS011;30146;52.268;20.944;2023-06-10T08:31:27;15.40;;;6.10;;
44440;SDS011;30146;52.268;20.944;2023-06-10T08:33:58;12.10;;;4.90;;
44440;SDS011;30146;52.268;20.944;2023-06-10T08:36:29;12.00;;;5.10;;
44440;SDS011;30146;52.268;20.944;2023-06-10T08:39:00;14.50;;;5.10;;
44440;SDS011;30146;52.268;20.944;2023-06-10T08:41:32;8.90;;;5.30;;
44440;SDS011;30146;52.268;20.944;2023-06-10T08:44:10;10.90;;;4.80;;
44440;SDS011;30146;52.268;20.944;2023-06-10T08:46:47;13.90;;;5.10;;
44440;SDS011;30146;52.268;20.944;2023-06-10T08:49:19;6.80;;;4.70;;
44440;SDS011;30146;52.268;20.944;2023-06-10T08:51:57;11.30;;;5.40;;
44440;SDS011;30146;52.268;20.944;2023-06-10T08:54:31;13.50;;;4.70;;
44440;SDS011;30146;52.268;20.944;2023-06-10T08:59:36;11.30;;;5.10;;
44440;SDS011;30146;52.268;20.944;2023-06-10T09:02:08;11.60;;;5.00;;
44440;SDS011;30146;52.268;20.944;2023-06-10T09:04:40;15.80;;;4.90;;
44440;SDS011;30146;52.268;20.944;2023-06-10T09:07:14;8.20;;;5.30;;
44440;SDS011;30146;52.268;20.944;2023-06-10T09:09:46;11.00;;;5.20;;
44440;SDS011;30146;52.268;20.944;2023-06-10T09:12:18;13.60;;;5.00;;
44440;SDS011;30146;52.268;20.944;2023-06-10T09:14:49;9.10;;;5.10;;
44440;SDS011;30146;52.268;20.944;2023-06-10T09:17:21;9.70;;;5.00;;
44440;SDS011;30146;52.268;20.944;2023-06-10T09:19:53;10.60;;;5.10;;
44440;SDS011;30146;52.268;20.944;2023-06-10T09:22:25;7.30;;;5.00;;
44440;SDS011;30146;52.268;20.944;2023-06-10T09:25:03;11.70;;;5.50;;
44440;SDS011;30146;52.268;20.944;2023-06-10T09:27:45;17.10;;;5.10;;
44440;SDS011;30146;52.268;20.944;2023-06-10T09:30:27;8.20;;;4.90;;
44440;SDS011;30146;52.268;20.944;2023-06-10T09:33:01;6.60;;;4.40;;
44440;SDS011;30146;52.268;20.944;2023-06-10T09:35:46;17.70;;;5.30;;
44440;SDS011;30146;52.268;20.944;2023-06-10T09:38:20;14.70;;;5.10;;
44440;SDS011;30146;52.268;20.944;2023-06-10T09:40:52;13.00;;;4.40;;
44440;SDS011;30146;52.268;20.944;2023-06-10T09:43:24;9.30;;;4.10;;
44440;SDS011;30146;52.268;20.944;2023-06-10T09:46:17;10.80;;;4.70;;
44440;SDS011;30146;52.268;20.944;2023-06-10T09:48:51;8.80;;;4.30;;
44440;SDS011;30146;52.268;20.944;2023-06-10T09:51:22;15.50;;;5.90;;
44440;SDS011;30146;52.268;20.944;2023-06-10T09:53:53;14.80;;;4.80;;
44440;SDS011;30146;52.268;20.944;2023-06-10T09:56:33;10.80;;;4.30;;
44440;SDS011;30146;52.268;20.944;2023-06-10T09:59:05;7.80;;;4.70;;
44440;SDS011;30146;52.268;20.944;2023-06-10T10:01:36;8.00;;;4.30;;
44440;SDS011;30146;52.268;20.944;2023-06-10T10:04:08;10.50;;;4.20;;
44440;SDS011;30146;52.268;20.944;2023-06-10T10:06:39;9.50;;;4.30;;
44440;SDS011;30146;52.268;20.944;2023-06-10T10:09:11;7.40;;;4.10;;
44440;SDS011;30146;52.268;20.944;2023-06-10T10:11:42;15.70;;;4.10;;
44440;SDS011;30146;52.268;20.944;2023-06-10T10:14:15;9.30;;;4.10;;
44440;SDS011;30146;52.268;20.944;2023-06-10T10:16:48;12.50;;;4.70;;
44440;SDS011;30146;52.268;20.944;2023-06-10T10:19:25;9.90;;;4.20;;
44440;SDS011;30146;52.268;20.944;2023-06-10T10:22:04;8.90;;;3.70;;
44440;SDS011;30146;52.268;20.944;2023-06-10T10:24:38;12.40;;;4.50;;
44440;SDS011;30146;52.268;20.944;2023-06-10T10:27:17;9.70;;;4.70;;
44440;SDS011;30146;52.268;20.944;2023-06-10T10:29:54;8.10;;;3.60;;
44440;SDS011;30146;52.268;20.944;2023-06-10T10:32:29;7.60;;;3.70;;
44440;SDS011;30146;52.268;20.944;2023-06-10T10:35:06;15.90;;;4.50;;
44440;SDS011;30146;52.268;20.944;2023-06-10T10:37:41;10.20;;;3.80;;
44440;SDS011;30146;52.268;20.944;2023-06-10T10:40:13;16.40;;;4.60;;
44440;SDS011;30146;52.268;20.944;2023-06-10T10:42:45;10.40;;;4.50;;
44440;SDS011;30146;52.268;20.944;2023-06-10T10:45:17;15.20;;;4.50;;
44440;SDS011;30146;52.268;20.944;2023-06-10T10:47:52;9.70;;;4.40;;
44440;SDS011;30146;52.268;20.944;2023-06-10T10:50:25;9.40;;;4.10;;
44440;SDS011;30146;52.268;20.944;2023-06-10T10:53:00;13.80;;;4.40;;
44440;SDS011;30146;52.268;20.944;2023-06-10T10:55:32;5.80;;;3.80;;
44440;SDS011;30146;52.268;20.944;2023-06-10T10:58:06;9.90;;;3.90;;
44440;SDS011;30146;52.268;20.944;2023-06-10T11:00:43;9.30;;;3.80;;
44440;SDS011;30146;52.268;20.944;2023-06-10T11:03:18;8.30;;;3.80;;
44440;SDS011;30146;52.268;20.944;2023-06-10T11:05:49;8.20;;;3.90;;
44440;SDS011;30146;52.268;20.944;2023-06-10T11:11:19;10.90;;;4.70;;
44440;SDS011;30146;52.268;20.944;2023-06-10T11:14:03;15.80;;;4.40;;
44440;SDS011;30146;52.268;20.944;2023-06-10T11:16:41;15.40;;;4.30;;
44440;SDS011;30146;52.268;20.944;2023-06-10T11:19:17;8.60;;;4.60;;
44440;SDS011;30146;52.268;20.944;2023-06-10T11:22:05;6.70;;;4.00;;
44440;SDS011;30146;52.268;20.944;2023-06-10T11:24:38;9.30;;;4.20;;
44440;SDS011;30146;52.268;20.944;2023-06-10T11:27:15;12.30;;;4.20;;
44440;SDS011;30146;52.268;20.944;2023-06-10T11:29:58;8.20;;;4.50;;
44440;SDS011;30146;52.268;20.944;2023-06-10T11:32:47;8.70;;;4.10;;
44440;SDS011;30146;52.268;20.944;2023-06-10T11:35:22;7.60;;;4.40;;
44440;SDS011;30146;52.268;20.944;2023-06-10T11:37:55;10.90;;;5.30;;
44440;SDS011;30146;52.268;20.944;2023-06-10T11:40:26;21.90;;;4.70;;
44440;SDS011;30146;52.268;20.944;2023-06-10T11:42:59;10.70;;;4.50;;
44440;SDS011;30146;52.268;20.944;2023-06-10T11:45:30;11.50;;;4.20;;
44440;SDS011;30146;52.268;20.944;2023-06-10T11:48:01;7.10;;;4.10;;
44440;SDS011;30146;52.268;20.944;2023-06-10T11:50:33;10.30;;;4.50;;
44440;SDS011;30146;52.268;20.944;2023-06-10T11:53:07;12.80;;;4.60;;
44440;SDS011;30146;52.268;20.944;2023-06-10T11:55:43;5.80;;;3.90;;
44440;SDS011;30146;52.268;20.944;2023-06-10T11:58:15;9.20;;;4.00;;
44440;SDS011;30146;52.268;20.944;2023-06-10T12:00:48;7.60;;;3.90;;
44440;SDS011;30146;52.268;20.944;2023-06-10T12:03:21;9.80;;;4.40;;
44440;SDS011;30146;52.268;20.944;2023-06-10T12:05:56;10.90;;;4.50;;
44440;SDS011;30146;52.268;20.944;2023-06-10T12:08:28;9.80;;;4.60;;
44440;SDS011;30146;52.268;20.944;2023-06-10T12:11:03;7.20;;;4.50;;
44440;SDS011;30146;52.268;20.944;2023-06-10T12:13:36;7.60;;;5.10;;
44440;SDS011;30146;52.268;20.944;2023-06-10T12:16:16;12.80;;;4.70;;
44440;SDS011;30146;52.268;20.944;2023-06-10T12:18:47;9.20;;;5.10;;
44440;SDS011;30146;52.268;20.944;2023-06-10T12:21:19;11.20;;;4.90;;
44440;SDS011;30146;52.268;20.944;2023-06-10T12:26:38;6.10;;;4.30;;
44440;SDS011;30146;52.268;20.944;2023-06-10T12:29:17;18.40;;;4.60;;
44440;SDS011;30146;52.268;20.944;2023-06-10T12:31:54;6.20;;;4.30;;
44440;SDS011;30146;52.268;20.944;2023-06-10T12:34:30;12.20;;;4.90;;
44440;SDS011;30146;52.268;20.944;2023-06-10T12:37:10;4.90;;;4.40;;
44440;SDS011;30146;52.268;20.944;2023-06-10T12:39:42;8.20;;;4.60;;
44440;SDS011;30146;52.268;20.944;2023-06-10T12:42:23;7.80;;;4.80;;
44440;SDS011;30146;52.268;20.944;2023-06-10T12:44:56;10.50;;;4.20;;
44440;SDS011;30146;52.268;20.944;2023-06-10T12:47:33;9.40;;;4.90;;
44440;SDS011;30146;52.268;20.944;2023-06-10T12:50:10;10.60;;;5.10;;
44440;SDS011;30146;52.268;20.944;2023-06-10T12:52:41;16.00;;;4.90;;
44440;SDS011;30146;52.268;20.944;2023-06-10T12:55:16;11.70;;;4.90;;
44440;SDS011;30146;52.268;20.944;2023-06-10T12:57:50;11.50;;;5.90;;
44440;SDS011;30146;52.268;20.944;2023-06-10T13:00:23;17.30;;;5.00;;
44440;SDS011;30146;52.268;20.944;2023-06-10T13:02:59;9.20;;;4.70;;
44440;SDS011;30146;52.268;20.944;2023-06-10T13:05:31;12.40;;;5.00;;
44440;SDS011;30146;52.268;20.944;2023-06-10T13:08:04;10.20;;;5.00;;
44440;SDS011;30146;52.268;20.944;2023-06-10T13:10:38;6.40;;;4.30;;
44440;SDS011;30146;52.268;20.944;2023-06-10T13:13:10;14.30;;;5.30;;
44440;SDS011;30146;52.268;20.944;2023-06-10T13:15:42;16.80;;;5.10;;
44440;SDS011;30146;52.268;20.944;2023-06-10T13:18:13;7.70;;;4.80;;
44440;SDS011;30146;52.268;20.944;2023-06-10T13:20:46;6.20;;;4.80;;
44440;SDS011;30146;52.268;20.944;2023-06-10T13:23:18;7.90;;;4.70;;
44440;SDS011;30146;52.268;20.944;2023-06-10T13:25:50;14.80;;;5.10;;
44440;SDS011;30146;52.268;20.944;2023-06-10T13:28:21;9.60;;;4.70;;
44440;SDS011;30146;52.268;20.944;2023-06-10T13:30:55;16.70;;;6.70;;
44440;SDS011;30146;52.268;20.944;2023-06-10T13:33:26;13.80;;;5.40;;
44440;SDS011;30146;52.268;20.944;2023-06-10T13:38:31;10.90;;;5.00;;
44440;SDS011;30146;52.268;20.944;2023-06-10T13:41:02;11.80;;;5.70;;
44440;SDS011;30146;52.268;20.944;2023-06-10T13:43:33;10.30;;;4.90;;
44440;SDS011;30146;52.268;20.944;2023-06-10T13:46:04;10.70;;;4.90;;
44440;SDS011;30146;52.268;20.944;2023-06-10T13:48:35;8.30;;;4.90;;
44440;SDS011;30146;52.268;20.944;2023-06-10T13:51:16;6.90;;;4.60;;
44440;SDS011;30146;52.268;20.944;2023-06-10T13:53:47;13.60;;;5.00;;
44440;SDS011;30146;52.268;20.944;2023-06-10T13:56:18;12.70;;;5.30;;
44440;SDS011;30146;52.268;20.944;2023-06-10T13:58:55;13.00;;;4.90;;
44440;SDS011;30146;52.268;20.944;2023-06-10T14:01:30;9.60;;;4.90;;
44440;SDS011;30146;52.268;20.944;2023-06-10T14:04:02;9.60;;;5.00;;
44440;SDS011;30146;52.268;20.944;2023-06-10T14:06:35;13.10;;;4.90;;
44440;SDS011;30146;52.268;20.944;2023-06-10T14:09:10;5.70;;;4.70;;
44440;SDS011;30146;52.268;20.944;2023-06-10T14:11:42;6.70;;;4.60;;
44440;SDS011;30146;52.268;20.944;2023-06-10T14:14:13;8.00;;;4.30;;
44440;SDS011;30146;52.268;20.944;2023-06-10T14:16:47;13.20;;;4.50;;
44440;SDS011;30146;52.268;20.944;2023-06-10T14:19:18;9.30;;;4.60;;
44440;SDS011;30146;52.268;20.944;2023-06-10T14:21:49;8.30;;;5.20;;
44440;SDS011;30146;52.268;20.944;2023-06-10T14:24:24;13.50;;;5.20;;
44440;SDS011;30146;52.268;20.944;2023-06-10T14:26:55;11.60;;;5.30;;
44440;SDS011;30146;52.268;20.944;2023-06-10T14:29:27;10.60;;;5.10;;
44440;SDS011;30146;52.268;20.944;2023-06-10T14:31:59;7.10;;;5.20;;
44440;SDS011;30146;52.268;20.944;2023-06-10T14:34:37;8.50;;;5.00;;
44440;SDS011;30146;52.268;20.944;2023-06-10T14:37:10;13.00;;;5.20;;
44440;SDS011;30146;52.268;20.944;2023-06-10T14:39:42;9.20;;;4.50;;
44440;SDS011;30146;52.268;20.944;2023-06-10T14:42:13;8.30;;;5.10;;
44440;SDS011;30146;52.268;20.944;2023-06-10T14:44:49;8.40;;;4.60;;
44440;SDS011;30146;52.268;20.944;2023-06-10T14:47:21;10.20;;;4.80;;
44440;SDS011;30146;52.268;20.944;2023-06-10T14:49:52;9.40;;;4.90;;
44440;SDS011;30146;52.268;20.944;2023-06-10T14:52:23;10.90;;;4.80;;
44440;SDS011;30146;52.268;20.944;2023-06-10T14:54:54;8.40;;;4.70;;
44440;SDS011;30146;52.268;20.944;2023-06-10T14:57:29;16.90;;;5.30;;
44440;SDS011;30146;52.268;20.944;2023-06-10T15:00:04;12.10;;;4.90;;
44440;SDS011;30146;52.268;20.944;2023-06-10T15:02:37;10.40;;;5.20;;
44440;SDS011;30146;52.268;20.944;2023-06-10T15:05:08;12.10;;;4.80;;
44440;SDS011;30146;52.268;20.944;2023-06-10T15:07:45;9.50;;;4.90;;
44440;SDS011;30146;52.268;20.944;2023-06-10T15:10:16;7.50;;;4.80;;